Port Hood, Canada
Current Conditions -  °F | °C
As of 4:00 PM on Thursday 23 Oct 2014 (Local Time) from CYPD Reporting Station
Broken Clouds Broken Clouds  
Wind Chill: 13°   Ceiling: 4600
Heat Index: 13°   Visibility: 9mi
Dew Point:   Wind: 18mph
Humidity: 72%   Direction: 70°ENE
Pressure: 30.03"   Gusts: 29mph
Location:  46.03°N, 61.53°W
Report Text: CYPD 231900Z AUTO 07016G25KT 9SM FEW024 BKN046 BKN150 13/08 A3003 RMK SLP170
Loading
Personal Weather Stations






























Interactive Weather Map
Tropical Storm Tracking
New forecast layout! Learn more

10-Day Weather Forecast

Advertisements
Track Severe Weather on mobile